createdAt,value
2022-11-28T00:01:39.443Z,7.03
2022-11-28T00:04:09.454Z,7.33
2022-11-28T00:06:41.137Z,6.53
2022-11-28T00:09:10.317Z,7.90
2022-11-28T00:11:41.068Z,6.80
2022-11-28T00:14:09.751Z,7.50
2022-11-28T00:16:38.581Z,6.10
2022-11-28T00:19:07.929Z,6.67
2022-11-28T00:21:36.619Z,6.03
2022-11-28T00:24:07.282Z,6.50
2022-11-28T00:26:37.841Z,6.33
2022-11-28T00:29:06.900Z,6.10
2022-11-28T00:31:42.356Z,5.40
2022-11-28T00:34:12.006Z,6.63
2022-11-28T00:36:40.317Z,6.37
2022-11-28T00:39:10.122Z,5.30
2022-11-28T00:41:38.456Z,5.80
2022-11-28T00:44:06.852Z,6.50
2022-11-28T00:46:35.261Z,6.30
2022-11-28T00:49:03.633Z,6.60
2022-11-28T00:51:33.943Z,7.33
2022-11-28T00:54:04.592Z,7.47
2022-11-28T00:56:36.519Z,6.30
2022-11-28T00:59:05.553Z,6.73
2022-11-28T01:01:36.368Z,7.30
2022-11-28T01:04:07.412Z,7.40
2022-11-28T01:06:39.779Z,6.40
2022-11-28T01:09:10.709Z,7.97
2022-11-28T01:11:41.591Z,8.37
2022-11-28T01:14:10.635Z,9.13
2022-11-28T01:16:39.368Z,8.20
2022-11-28T01:19:08.254Z,7.87
2022-11-28T01:21:37.249Z,9.47
2022-11-28T01:24:06.302Z,8.70
2022-11-28T01:26:35.177Z,9.47
2022-11-28T01:29:04.820Z,9.00
2022-11-28T01:31:33.297Z,9.50
2022-11-28T01:34:01.666Z,9.27
2022-11-28T01:36:30.452Z,9.87
2022-11-28T01:38:59.177Z,9.90
2022-11-28T01:41:29.292Z,9.10
2022-11-28T01:44:05.849Z,8.47
2022-11-28T01:46:35.305Z,9.27
2022-11-28T01:49:12.412Z,10.30
2022-11-28T01:51:43.490Z,10.27
2022-11-28T01:54:11.968Z,10.20
2022-11-28T01:56:47.085Z,10.13
2022-11-28T01:59:17.177Z,9.13
2022-11-28T02:01:46.495Z,9.80
2022-11-28T02:04:15.585Z,10.70
2022-11-28T02:06:44.479Z,10.50
2022-11-28T02:09:14.401Z,10.07
2022-11-28T02:12:13.476Z,10.43
2022-11-28T02:15:23.496Z,11.07
2022-11-28T02:18:10.614Z,11.67
2022-11-28T02:21:03.035Z,11.90
2022-11-28T02:23:53.973Z,12.40
2022-11-28T02:26:54.373Z,12.63
2022-11-28T02:29:41.163Z,13.03
2022-11-28T02:32:20.699Z,12.13
2022-11-28T02:34:57.751Z,12.40
2022-11-28T02:37:34.607Z,12.40
2022-11-28T02:40:13.129Z,12.57
2022-11-28T02:42:51.514Z,12.27
2022-11-28T02:45:26.174Z,13.83
2022-11-28T02:48:02.884Z,13.57
2022-11-28T02:50:36.907Z,14.00
2022-11-28T02:53:08.652Z,13.63
2022-11-28T02:55:41.074Z,13.53
2022-11-28T02:58:10.832Z,14.73
2022-11-28T03:00:42.886Z,15.33
2022-11-28T03:03:37.892Z,14.43
2022-11-28T03:06:17.843Z,15.33
2022-11-28T03:09:06.132Z,15.10
2022-11-28T03:11:47.974Z,16.00
2022-11-28T03:14:25.342Z,16.03
2022-11-28T03:17:05.736Z,16.83
2022-11-28T03:19:39.172Z,17.70
2022-11-28T03:22:13.346Z,17.97
2022-11-28T03:24:45.868Z,17.00
2022-11-28T03:27:19.266Z,17.90
2022-11-28T03:29:51.486Z,18.13
2022-11-28T03:32:24.315Z,17.63
2022-11-28T03:34:59.307Z,18.93
2022-11-28T03:37:33.330Z,19.90
2022-11-28T03:40:05.429Z,19.77
2022-11-28T03:42:37.466Z,19.67
2022-11-28T03:45:11.089Z,19.47
2022-11-28T03:47:44.697Z,21.97
2022-11-28T03:50:20.394Z,22.40
2022-11-28T03:52:52.848Z,22.50
2022-11-28T03:55:28.785Z,22.67
2022-11-28T03:58:01.047Z,23.17
2022-11-28T04:00:29.872Z,24.30
2022-11-28T04:03:07.220Z,24.23
2022-11-28T04:05:46.633Z,25.13
2022-11-28T04:08:19.192Z,26.67
2022-11-28T04:10:53.857Z,23.33
2022-11-28T04:13:28.142Z,24.83
2022-11-28T04:16:00.852Z,25.80
2022-11-28T04:18:32.825Z,27.13
2022-11-28T04:21:11.579Z,27.27
2022-11-28T04:23:41.878Z,26.67
2022-11-28T04:26:15.252Z,17.57
2022-11-28T04:28:45.679Z,27.60
2022-11-28T04:31:14.799Z,27.13
2022-11-28T04:33:49.401Z,24.30
2022-11-28T04:36:21.473Z,23.80
2022-11-28T04:38:56.568Z,23.20
2022-11-28T04:41:29.516Z,22.67
2022-11-28T04:44:01.787Z,24.00
2022-11-28T04:46:33.919Z,24.03
2022-11-28T04:49:02.563Z,25.00
2022-11-28T04:51:39.999Z,23.90
2022-11-28T04:54:13.309Z,25.10
2022-11-28T04:56:46.197Z,25.43
2022-11-28T04:59:15.946Z,25.20
2022-11-28T05:01:47.269Z,22.70
2022-11-28T05:04:17.294Z,26.27
2022-11-28T05:06:47.031Z,25.27
2022-11-28T05:09:15.526Z,24.33
2022-11-28T05:11:43.810Z,25.60
2022-11-28T05:14:12.099Z,27.60
2022-11-28T05:16:40.405Z,27.97
2022-11-28T05:19:09.073Z,26.10
2022-11-28T05:21:37.375Z,28.13
2022-11-28T05:24:07.885Z,26.50
2022-11-28T05:26:36.682Z,29.13
2022-11-28T05:29:05.829Z,29.13
2022-11-28T05:31:34.138Z,29.60
2022-11-28T05:34:02.534Z,29.77
2022-11-28T05:36:30.753Z,29.67
2022-11-28T05:38:59.122Z,31.43
2022-11-28T05:41:30.683Z,31.67
2022-11-28T05:44:00.860Z,24.40
2022-11-28T05:46:30.369Z,30.63
2022-11-28T05:48:58.950Z,31.17
2022-11-28T05:51:27.243Z,33.00
2022-11-28T05:53:58.676Z,30.63
2022-11-28T05:56:28.391Z,31.87
2022-11-28T05:58:56.767Z,30.93
2022-11-28T06:01:26.902Z,31.37
2022-11-28T06:03:59.840Z,30.17
2022-11-28T06:06:29.791Z,30.87
2022-11-28T06:08:58.439Z,29.57
2022-11-28T06:11:29.836Z,28.43
2022-11-28T06:13:58.210Z,29.30
2022-11-28T06:16:29.067Z,30.27
2022-11-28T06:18:59.029Z,28.93
2022-11-28T06:21:28.560Z,29.30
2022-11-28T06:23:58.118Z,28.70
2022-11-28T06:26:29.131Z,28.63
2022-11-28T06:28:57.678Z,29.17
2022-11-28T06:31:28.615Z,29.10
2022-11-28T06:33:57.444Z,28.23
2022-11-28T06:36:27.121Z,28.93
2022-11-28T06:38:55.441Z,26.42
2022-11-28T06:41:24.075Z,29.23
2022-11-28T06:43:53.851Z,27.30
2022-11-28T06:46:22.964Z,28.33
2022-11-28T06:48:54.295Z,29.10
2022-11-28T06:51:23.119Z,28.60
2022-11-28T06:53:51.789Z,26.40
2022-11-28T06:56:21.542Z,28.13
2022-11-28T06:58:56.839Z,26.57
2022-11-28T07:01:26.794Z,27.73
2022-11-28T07:03:55.561Z,28.08
2022-11-28T07:06:26.000Z,26.87
2022-11-28T07:08:56.300Z,30.43
2022-11-28T07:11:26.301Z,28.42
2022-11-28T07:13:57.737Z,31.60
2022-11-28T07:16:27.944Z,28.00
2022-11-28T07:18:57.794Z,27.23
2022-11-28T07:21:27.765Z,29.27
2022-11-28T07:23:56.350Z,28.53
2022-11-28T07:26:24.749Z,28.80
2022-11-28T07:28:53.222Z,29.00
2022-11-28T07:31:25.381Z,32.03
2022-11-28T07:33:54.233Z,32.20
2022-11-28T07:36:25.274Z,31.97
2022-11-28T07:38:55.706Z,27.83
2022-11-28T07:41:26.755Z,29.37
2022-11-28T07:43:57.071Z,30.00
2022-11-28T07:46:28.103Z,29.93
2022-11-28T07:48:56.647Z,32.67
2022-11-28T07:51:27.152Z,22.07
2022-11-28T07:53:55.955Z,29.73
2022-11-28T07:56:29.482Z,30.03
2022-11-28T07:59:04.635Z,29.20
2022-11-28T08:01:36.782Z,31.27
2022-11-28T08:04:08.959Z,27.93
2022-11-28T08:06:39.294Z,31.17
2022-11-28T08:09:08.320Z,28.40
2022-11-28T08:11:37.056Z,29.47
2022-11-28T08:14:06.520Z,28.43
2022-11-28T08:16:36.934Z,29.47
2022-11-28T08:19:05.599Z,29.73
2022-11-28T08:21:35.515Z,28.60
2022-11-28T08:24:05.317Z,30.60
2022-11-28T08:26:36.640Z,29.70
2022-11-28T08:29:05.352Z,23.83
2022-11-28T08:31:36.996Z,28.77
2022-11-28T08:34:07.285Z,26.63
2022-11-28T08:36:35.675Z,26.13
2022-11-28T08:41:54.301Z,28.47
2022-11-28T08:44:22.834Z,28.13
2022-11-28T08:46:56.105Z,28.03
2022-11-28T08:49:24.377Z,29.43
2022-11-28T08:51:53.028Z,26.90
2022-11-28T08:54:21.520Z,26.47
2022-11-28T08:56:49.914Z,27.53
2022-11-28T08:59:21.059Z,23.87
2022-11-28T09:01:49.491Z,24.77
2022-11-28T09:04:19.319Z,26.48
2022-11-28T09:06:47.695Z,24.80
2022-11-28T09:09:17.202Z,24.30
2022-11-28T09:11:45.829Z,22.97
2022-11-28T09:14:14.327Z,23.33
2022-11-28T09:16:43.091Z,23.50
2022-11-28T09:19:11.379Z,24.30
2022-11-28T09:21:41.678Z,24.07
2022-11-28T09:24:10.502Z,23.10
2022-11-28T09:26:38.852Z,18.33
2022-11-28T09:29:09.242Z,25.07
2022-11-28T09:31:37.653Z,23.90
2022-11-28T09:34:05.967Z,24.63
2022-11-28T09:36:36.585Z,24.93
2022-11-28T09:39:06.444Z,23.70
2022-11-28T09:41:45.388Z,25.30
2022-11-28T09:44:19.659Z,24.77
2022-11-28T09:46:51.012Z,23.17
2022-11-28T09:49:26.499Z,22.33
2022-11-28T09:51:59.715Z,22.87
2022-11-28T09:54:39.712Z,24.70
2022-11-28T09:57:15.094Z,25.30
2022-11-28T09:59:43.936Z,27.83
2022-11-28T10:02:27.206Z,27.17
2022-11-28T10:05:06.801Z,24.43
2022-11-28T10:07:44.495Z,26.70
2022-11-28T10:10:20.938Z,23.77
2022-11-28T10:12:58.908Z,26.90
2022-11-28T10:15:41.124Z,26.90
2022-11-28T10:18:31.749Z,26.03
2022-11-28T10:21:05.117Z,27.03
2022-11-28T10:23:40.414Z,26.33
2022-11-28T10:26:17.213Z,27.07
2022-11-28T10:28:50.022Z,25.97
2022-11-28T10:31:23.514Z,26.00
2022-11-28T10:33:58.623Z,25.30
2022-11-28T10:36:32.083Z,26.30
2022-11-28T10:39:10.000Z,24.00
2022-11-28T10:42:07.518Z,25.63
2022-11-28T10:44:42.579Z,26.38
2022-11-28T10:47:19.327Z,25.37
2022-11-28T10:49:56.425Z,27.23
2022-11-28T10:52:31.856Z,25.95
2022-11-28T10:55:18.287Z,28.98
2022-11-28T10:58:00.010Z,26.98
2022-11-28T11:00:28.270Z,26.67
2022-11-28T11:02:58.025Z,22.95
2022-11-28T11:05:29.140Z,26.85
2022-11-28T11:07:59.992Z,26.67
2022-11-28T11:10:31.704Z,25.87
2022-11-28T11:13:15.525Z,27.15
2022-11-28T11:15:44.034Z,33.03
2022-11-28T11:18:24.854Z,25.63
2022-11-28T11:21:06.091Z,28.58
2022-11-28T11:23:38.612Z,25.52
2022-11-28T11:26:14.069Z,28.00
2022-11-28T11:28:45.924Z,25.98
2022-11-28T11:31:21.936Z,27.98
2022-11-28T11:33:54.185Z,25.85
2022-11-28T11:36:28.378Z,24.63
2022-11-28T11:39:09.321Z,25.90
2022-11-28T11:41:38.253Z,24.57
2022-11-28T11:44:34.130Z,25.57
2022-11-28T11:47:05.226Z,24.00
2022-11-28T11:49:35.793Z,25.30
2022-11-28T11:52:06.967Z,26.87
2022-11-28T11:54:35.412Z,26.47
2022-11-28T11:57:31.443Z,25.37
2022-11-28T11:59:59.457Z,25.67
2022-11-28T12:02:33.534Z,24.63
2022-11-28T12:05:06.611Z,25.67
2022-11-28T12:07:41.619Z,26.85
2022-11-28T12:10:14.574Z,27.58
2022-11-28T12:12:42.961Z,26.33
2022-11-28T12:15:22.563Z,25.42
2022-11-28T12:18:03.274Z,27.20
2022-11-28T12:20:44.121Z,26.73
2022-11-28T12:23:39.250Z,27.60
2022-11-28T12:26:14.318Z,24.67
2022-11-28T12:28:58.813Z,28.08
2022-11-28T12:31:35.775Z,28.17
2022-11-28T12:34:15.792Z,27.13
2022-11-28T12:36:52.532Z,27.07
2022-11-28T12:39:32.724Z,27.13
2022-11-28T12:42:20.989Z,25.63
2022-11-28T12:45:15.757Z,26.77
2022-11-28T12:47:55.302Z,23.93
2022-11-28T12:50:33.307Z,27.13
2022-11-28T12:53:23.340Z,27.23
2022-11-28T12:56:01.123Z,26.25
2022-11-28T12:58:34.880Z,28.33
2022-11-28T13:01:15.062Z,27.05
2022-11-28T13:03:56.503Z,30.70
2022-11-28T13:06:35.076Z,27.23
2022-11-28T13:09:30.687Z,28.98
2022-11-28T13:12:19.101Z,26.38
2022-11-28T13:14:55.389Z,28.05
2022-11-28T13:17:39.743Z,31.13
2022-11-28T13:20:20.604Z,26.05
2022-11-28T13:22:58.781Z,25.83
2022-11-28T13:25:32.763Z,23.60
2022-11-28T13:28:12.036Z,22.92
2022-11-28T13:30:46.924Z,25.02
2022-11-28T13:33:35.498Z,24.42
2022-11-28T13:36:09.236Z,22.85
2022-11-28T13:39:11.190Z,21.90
2022-11-28T13:42:14.227Z,21.23
2022-11-28T13:44:43.136Z,20.98
2022-11-28T13:47:16.543Z,21.93
2022-11-28T13:49:44.896Z,22.95
2022-11-28T13:52:44.751Z,23.10
2022-11-28T13:55:40.887Z,21.73
2022-11-28T13:58:28.461Z,20.88
2022-11-28T14:01:10.192Z,22.80
2022-11-28T14:03:47.833Z,21.50
2022-11-28T14:06:20.603Z,18.75
2022-11-28T14:09:01.123Z,21.10
2022-11-28T14:11:47.554Z,22.63
2022-11-28T14:14:39.562Z,22.90
2022-11-28T14:17:22.059Z,24.60
2022-11-28T14:20:02.412Z,22.63
2022-11-28T14:22:43.011Z,23.23
2022-11-28T14:25:19.530Z,21.00
2022-11-28T14:27:54.691Z,20.98
2022-11-28T14:30:31.658Z,19.17
2022-11-28T14:33:04.217Z,20.40
2022-11-28T14:36:15.710Z,18.55
2022-11-28T14:38:45.902Z,17.75
2022-11-28T14:41:16.917Z,19.45
2022-11-28T14:43:49.707Z,19.80
2022-11-28T14:46:58.739Z,18.80
2022-11-28T14:49:27.048Z,19.73
2022-11-28T14:52:39.058Z,19.23
2022-11-28T14:55:18.751Z,18.65
2022-11-28T14:57:57.413Z,20.15
2022-11-28T15:00:33.118Z,18.30
2022-11-28T15:03:20.714Z,18.83
2022-11-28T15:05:52.150Z,18.70
2022-11-28T15:08:35.495Z,18.43
2022-11-28T15:11:22.870Z,17.63
2022-11-28T15:14:08.615Z,17.20
2022-11-28T15:16:45.132Z,18.33
2022-11-28T15:19:23.978Z,18.07
2022-11-28T15:21:54.651Z,18.27
2022-11-28T15:24:31.900Z,17.63
2022-11-28T15:27:15.722Z,17.50
2022-11-28T15:29:55.388Z,18.40
2022-11-28T15:32:24.228Z,19.53
2022-11-28T15:34:55.421Z,19.33
2022-11-28T15:37:28.069Z,19.23
2022-11-28T15:39:56.474Z,19.10
2022-11-28T15:42:28.830Z,19.67
2022-11-28T15:45:00.756Z,19.57
2022-11-28T15:47:29.843Z,18.57
2022-11-28T15:50:03.989Z,18.67
2022-11-28T15:52:32.602Z,23.40
2022-11-28T15:55:01.025Z,20.37
2022-11-28T15:57:32.637Z,19.73
2022-11-28T16:00:05.124Z,20.77
2022-11-28T16:02:36.557Z,20.73
2022-11-28T16:05:08.827Z,27.30
2022-11-28T16:07:42.270Z,28.97
2022-11-28T16:10:25.593Z,31.97
2022-11-28T16:12:59.252Z,38.53
2022-11-28T16:15:29.885Z,35.27
2022-11-28T16:17:58.342Z,36.37
2022-11-28T16:20:29.016Z,35.30
2022-11-28T16:23:02.652Z,35.93
2022-11-28T16:25:32.620Z,38.93
2022-11-28T16:28:01.612Z,38.30
2022-11-28T16:30:36.859Z,37.93
2022-11-28T16:33:27.040Z,40.10
2022-11-28T16:36:10.578Z,40.70
2022-11-28T16:38:39.927Z,52.00
2022-11-28T16:41:15.425Z,45.60
2022-11-28T16:43:43.889Z,44.27
2022-11-28T16:46:21.888Z,41.23
2022-11-28T16:48:55.101Z,44.47
2022-11-28T16:51:37.650Z,42.30
2022-11-28T16:54:38.968Z,42.17
2022-11-28T16:57:12.321Z,44.97
2022-11-28T16:59:40.915Z,46.53
2022-11-28T17:02:21.454Z,44.47
2022-11-28T17:04:51.247Z,44.80
2022-11-28T17:07:22.859Z,43.47
2022-11-28T17:09:52.181Z,42.90
2022-11-28T17:12:26.141Z,40.50
2022-11-28T17:14:54.879Z,38.10
2022-11-28T17:17:24.993Z,39.40
2022-11-28T17:19:53.693Z,37.23
2022-11-28T17:22:25.211Z,37.40
2022-11-28T17:24:58.628Z,38.87
2022-11-28T17:27:27.091Z,38.37
2022-11-28T17:29:55.375Z,38.73
2022-11-28T17:32:25.466Z,40.20
2022-11-28T17:34:53.835Z,42.80
2022-11-28T17:37:22.125Z,41.67
2022-11-28T17:40:04.308Z,40.73
2022-11-28T17:42:32.675Z,40.93
2022-11-28T17:45:00.952Z,42.43
2022-11-28T17:47:30.724Z,41.87
2022-11-28T17:49:58.970Z,44.17
2022-11-28T17:52:30.365Z,46.77
2022-11-28T17:55:06.927Z,51.67
2022-11-28T17:57:36.442Z,51.80
2022-11-28T18:00:06.517Z,49.83
2022-11-28T18:02:36.508Z,46.43
2022-11-28T18:05:05.252Z,47.13
2022-11-28T18:07:33.745Z,47.13
2022-11-28T18:10:05.548Z,45.53
2022-11-28T18:12:33.831Z,46.37
2022-11-28T18:15:02.149Z,43.77
2022-11-28T18:17:30.361Z,42.90
2022-11-28T18:20:00.039Z,46.97
2022-11-28T18:22:28.363Z,44.37
2022-11-28T18:24:56.689Z,44.53
2022-11-28T18:27:25.021Z,45.23
2022-11-28T18:29:53.305Z,45.43
2022-11-28T18:32:21.617Z,44.63
2022-11-28T18:34:49.939Z,46.07
2022-11-28T18:37:19.764Z,43.37
2022-11-28T18:39:48.110Z,43.40
2022-11-28T18:42:16.989Z,44.03
2022-11-28T18:44:45.387Z,45.60
2022-11-28T18:47:13.644Z,51.57
2022-11-28T18:49:42.320Z,55.90
2022-11-28T18:52:10.953Z,54.43
2022-11-28T18:54:40.650Z,54.63
2022-11-28T18:57:09.612Z,55.23
2022-11-28T18:59:37.909Z,52.93
2022-11-28T19:02:06.601Z,50.47
2022-11-28T19:04:34.939Z,51.97
2022-11-28T19:07:04.117Z,53.03
2022-11-28T19:09:32.581Z,55.37
2022-11-28T19:12:02.219Z,56.73
2022-11-28T19:14:30.654Z,53.93
2022-11-28T19:16:58.942Z,56.60
2022-11-28T19:19:27.458Z,57.30
2022-11-28T19:21:56.051Z,57.50
2022-11-28T19:24:24.442Z,57.40
2022-11-28T19:26:52.776Z,55.77
2022-11-28T19:29:22.360Z,56.93
2022-11-28T19:31:50.780Z,56.77
2022-11-28T19:34:20.136Z,56.70
2022-11-28T19:36:51.125Z,57.07
2022-11-28T19:39:22.253Z,57.07
2022-11-28T19:41:51.383Z,55.40
2022-11-28T19:44:20.982Z,54.83
2022-11-28T19:46:50.875Z,56.57
2022-11-28T19:49:20.810Z,56.47
2022-11-28T19:51:49.453Z,58.10
2022-11-28T19:54:19.768Z,68.17
2022-11-28T19:56:48.367Z,69.43
2022-11-28T19:59:16.899Z,69.60
2022-11-28T20:01:48.184Z,71.30
2022-11-28T20:04:17.949Z,71.37
2022-11-28T20:06:46.236Z,70.00
2022-11-28T20:09:14.906Z,72.57
2022-11-28T20:11:44.967Z,73.90
2022-11-28T20:14:15.250Z,76.50
2022-11-28T20:16:44.259Z,74.27
2022-11-28T20:19:15.007Z,75.03
2022-11-28T20:21:44.832Z,76.80
2022-11-28T20:24:13.170Z,73.17
2022-11-28T20:26:43.617Z,73.67
2022-11-28T20:29:15.851Z,67.93
2022-11-28T20:31:46.336Z,68.17
2022-11-28T20:34:15.831Z,70.53
2022-11-28T20:36:45.508Z,67.00
2022-11-28T20:39:13.971Z,67.47
2022-11-28T20:41:42.388Z,64.00
2022-11-28T20:44:11.778Z,62.00
2022-11-28T20:46:40.212Z,60.70
2022-11-28T20:49:08.904Z,59.73
2022-11-28T20:51:37.715Z,59.33
2022-11-28T20:54:08.907Z,60.63
2022-11-28T20:57:04.997Z,61.47
2022-11-28T20:59:27.802Z,64.10
2022-11-28T21:01:56.172Z,62.83
2022-11-28T21:04:24.555Z,66.33
2022-11-28T21:06:52.992Z,69.73
2022-11-28T21:09:22.826Z,66.47
2022-11-28T21:11:57.517Z,68.00
2022-11-28T21:14:26.792Z,69.00
2022-11-28T21:16:55.968Z,71.47
2022-11-28T21:19:24.389Z,76.37
2022-11-28T21:21:52.682Z,71.03
2022-11-28T21:24:22.587Z,69.13
2022-11-28T21:26:54.130Z,73.80
2022-11-28T21:29:24.513Z,70.00
2022-11-28T21:31:53.431Z,75.43
2022-11-28T21:34:22.929Z,98.43
2022-11-28T21:36:51.429Z,75.90
2022-11-28T21:39:23.874Z,75.10
2022-11-28T21:41:52.236Z,78.17
2022-11-28T21:44:20.683Z,73.47
2022-11-28T21:46:49.032Z,83.77
2022-11-28T21:49:17.264Z,75.27
2022-11-28T21:51:45.776Z,94.27
2022-11-28T21:54:14.532Z,85.47
2022-11-28T21:56:44.836Z,86.47
2022-11-28T21:59:13.100Z,108.03
2022-11-28T22:01:41.498Z,92.13
2022-11-28T22:04:11.535Z,81.77
2022-11-28T22:06:39.878Z,75.53
2022-11-28T22:09:09.792Z,78.20
2022-11-28T22:11:39.241Z,64.43
2022-11-28T22:14:09.155Z,71.20
2022-11-28T22:16:37.475Z,83.87
2022-11-28T22:19:05.758Z,91.30
2022-11-28T22:24:22.473Z,128.33
2022-11-28T22:26:50.831Z,109.77
2022-11-28T22:29:20.538Z,68.20
2022-11-28T22:31:48.942Z,77.73
2022-11-28T22:34:17.297Z,100.53
2022-11-28T22:36:45.742Z,88.13
2022-11-28T22:39:14.057Z,97.13
2022-11-28T22:41:42.283Z,76.67
2022-11-28T22:44:12.666Z,108.67
2022-11-28T22:46:42.344Z,91.47
2022-11-28T22:49:11.529Z,120.43
2022-11-28T22:51:40.411Z,104.53
2022-11-28T22:54:09.145Z,104.53
2022-11-28T22:56:37.552Z,104.50
2022-11-28T22:59:05.872Z,108.07
2022-11-28T23:01:34.786Z,110.43
2022-11-28T23:04:04.528Z,101.23
2022-11-28T23:06:36.686Z,127.20
2022-11-28T23:09:09.576Z,117.63
2022-11-28T23:11:39.989Z,97.43
2022-11-28T23:14:08.989Z,141.17
2022-11-28T23:16:39.494Z,85.97
2022-11-28T23:19:12.142Z,79.13
2022-11-28T23:21:43.036Z,75.73
2022-11-28T23:24:15.178Z,118.83
2022-11-28T23:26:43.632Z,80.37
2022-11-28T23:29:11.859Z,88.63
2022-11-28T23:31:41.926Z,95.27
2022-11-28T23:34:12.617Z,109.23
2022-11-28T23:36:43.030Z,120.57
2022-11-28T23:39:13.786Z,108.13
2022-11-28T23:41:42.619Z,83.87
2022-11-28T23:44:12.707Z,85.53
2022-11-28T23:46:41.685Z,91.43
2022-11-28T23:49:12.410Z,78.17
2022-11-28T23:51:41.499Z,86.03
2022-11-28T23:54:10.799Z,85.57
2022-11-28T23:56:40.457Z,88.87
2022-11-28T23:59:11.579Z,87.70
